Terminal Aerodrome Forecast
Issued by NWS

Home | Current Version | Previous Version | Text Only | Print | Product List | Glossary On
Versions: 1 2 3 4 5 6 7 8 9 10 11 12
000
FTUS45 KRIW 210523
TAFCOD
TAF
KCOD 210523Z 2106/2206 26011KT P6SM FEW100 BKN200
     FM211800 25015G25KT P6SM FEW070 BKN200
     FM220000 23014G20KT P6SM SCT060 BKN120
      AMD LTD TO CLD VIS AND WIND=

USA.gov is the U.S. government's official web portal to all federal, state and local government web resources and services.